sensor_id;sensor_type;location;lat;lon;timestamp;P1;durP1;ratioP1;P2;durP2;ratioP2
11835;SDS011;5977;51.972;7.640;2024-01-30T00:00:56;148.13;;;48.43;;
11835;SDS011;5977;51.972;7.640;2024-01-30T00:03:24;148.40;;;48.80;;
11835;SDS011;5977;51.972;7.640;2024-01-30T00:05:52;148.53;;;48.87;;
11835;SDS011;5977;51.972;7.640;2024-01-30T00:08:24;148.77;;;48.97;;
11835;SDS011;5977;51.972;7.640;2024-01-30T00:10:53;148.77;;;48.87;;
11835;SDS011;5977;51.972;7.640;2024-01-30T00:13:21;148.27;;;48.40;;
11835;SDS011;5977;51.972;7.640;2024-01-30T00:15:49;148.87;;;48.90;;
11835;SDS011;5977;51.972;7.640;2024-01-30T00:18:18;148.53;;;48.87;;
11835;SDS011;5977;51.972;7.640;2024-01-30T00:20:47;148.43;;;48.77;;
11835;SDS011;5977;51.972;7.640;2024-01-30T00:23:14;148.73;;;48.93;;
11835;SDS011;5977;51.972;7.640;2024-01-30T00:25:42;148.60;;;48.83;;
11835;SDS011;5977;51.972;7.640;2024-01-30T00:28:10;148.10;;;48.70;;
11835;SDS011;5977;51.972;7.640;2024-01-30T00:30:38;148.40;;;48.73;;
11835;SDS011;5977;51.972;7.640;2024-01-30T00:33:06;148.93;;;48.97;;
11835;SDS011;5977;51.972;7.640;2024-01-30T00:35:36;148.57;;;48.97;;
11835;SDS011;5977;51.972;7.640;2024-01-30T00:38:04;148.63;;;49.00;;
11835;SDS011;5977;51.972;7.640;2024-01-30T00:40:34;148.70;;;48.87;;
11835;SDS011;5977;51.972;7.640;2024-01-30T00:43:02;148.53;;;48.87;;
11835;SDS011;5977;51.972;7.640;2024-01-30T00:45:30;148.37;;;48.83;;
11835;SDS011;5977;51.972;7.640;2024-01-30T00:47:57;148.00;;;48.57;;
11835;SDS011;5977;51.972;7.640;2024-01-30T00:50:25;148.47;;;48.77;;
11835;SDS011;5977;51.972;7.640;2024-01-30T00:52:55;149.07;;;49.20;;
11835;SDS011;5977;51.972;7.640;2024-01-30T00:55:23;148.87;;;49.00;;
11835;SDS011;5977;51.972;7.640;2024-01-30T00:57:51;148.67;;;48.77;;
11835;SDS011;5977;51.972;7.640;2024-01-30T01:00:19;148.60;;;48.90;;
11835;SDS011;5977;51.972;7.640;2024-01-30T01:02:47;148.77;;;48.97;;
11835;SDS011;5977;51.972;7.640;2024-01-30T01:05:16;148.07;;;48.73;;
11835;SDS011;5977;51.972;7.640;2024-01-30T01:07:44;148.40;;;48.77;;
11835;SDS011;5977;51.972;7.640;2024-01-30T01:10:15;147.97;;;48.63;;
11835;SDS011;5977;51.972;7.640;2024-01-30T01:12:44;148.43;;;48.83;;
11835;SDS011;5977;51.972;7.640;2024-01-30T01:15:12;148.17;;;48.67;;
11835;SDS011;5977;51.972;7.640;2024-01-30T01:17:40;148.37;;;48.67;;
11835;SDS011;5977;51.972;7.640;2024-01-30T01:20:09;148.57;;;48.83;;
11835;SDS011;5977;51.972;7.640;2024-01-30T01:22:37;148.17;;;48.77;;
11835;SDS011;5977;51.972;7.640;2024-01-30T01:25:06;148.37;;;48.70;;
11835;SDS011;5977;51.972;7.640;2024-01-30T01:27:36;148.20;;;48.73;;
11835;SDS011;5977;51.972;7.640;2024-01-30T01:30:08;147.57;;;48.40;;
11835;SDS011;5977;51.972;7.640;2024-01-30T01:32:37;148.70;;;48.77;;
11835;SDS011;5977;51.972;7.640;2024-01-30T01:35:11;148.07;;;48.60;;
11835;SDS011;5977;51.972;7.640;2024-01-30T01:37:39;147.93;;;48.57;;
11835;SDS011;5977;51.972;7.640;2024-01-30T01:40:07;148.37;;;48.73;;
11835;SDS011;5977;51.972;7.640;2024-01-30T01:42:37;148.23;;;48.60;;
11835;SDS011;5977;51.972;7.640;2024-01-30T01:45:06;148.47;;;48.73;;
11835;SDS011;5977;51.972;7.640;2024-01-30T01:47:35;148.17;;;48.77;;
11835;SDS011;5977;51.972;7.640;2024-01-30T01:50:03;148.53;;;48.83;;
11835;SDS011;5977;51.972;7.640;2024-01-30T01:52:32;148.57;;;48.87;;
11835;SDS011;5977;51.972;7.640;2024-01-30T01:55:00;148.37;;;48.63;;
11835;SDS011;5977;51.972;7.640;2024-01-30T01:57:28;148.50;;;48.80;;
11835;SDS011;5977;51.972;7.640;2024-01-30T01:59:57;148.30;;;48.80;;
11835;SDS011;5977;51.972;7.640;2024-01-30T02:02:26;148.63;;;48.97;;
11835;SDS011;5977;51.972;7.640;2024-01-30T02:04:57;147.30;;;48.20;;
11835;SDS011;5977;51.972;7.640;2024-01-30T02:07:25;148.10;;;48.63;;
11835;SDS011;5977;51.972;7.640;2024-01-30T02:09:55;147.87;;;48.43;;
11835;SDS011;5977;51.972;7.640;2024-01-30T02:12:24;148.40;;;48.80;;
11835;SDS011;5977;51.972;7.640;2024-01-30T02:14:51;147.93;;;48.47;;
11835;SDS011;5977;51.972;7.640;2024-01-30T02:17:22;148.73;;;48.87;;
11835;SDS011;5977;51.972;7.640;2024-01-30T02:19:51;148.20;;;48.67;;
11835;SDS011;5977;51.972;7.640;2024-01-30T02:22:21;148.00;;;48.50;;
11835;SDS011;5977;51.972;7.640;2024-01-30T02:24:49;148.40;;;48.73;;
11835;SDS011;5977;51.972;7.640;2024-01-30T02:27:17;147.87;;;48.57;;
11835;SDS011;5977;51.972;7.640;2024-01-30T02:29:45;148.50;;;48.97;;
11835;SDS011;5977;51.972;7.640;2024-01-30T02:32:13;148.70;;;49.00;;
11835;SDS011;5977;51.972;7.640;2024-01-30T02:34:41;148.20;;;48.67;;
11835;SDS011;5977;51.972;7.640;2024-01-30T02:37:10;148.57;;;48.83;;
11835;SDS011;5977;51.972;7.640;2024-01-30T02:39:39;148.60;;;48.90;;
11835;SDS011;5977;51.972;7.640;2024-01-30T02:42:07;147.73;;;48.67;;
11835;SDS011;5977;51.972;7.640;2024-01-30T02:44:35;148.37;;;48.60;;
11835;SDS011;5977;51.972;7.640;2024-01-30T02:47:03;147.87;;;48.50;;
11835;SDS011;5977;51.972;7.640;2024-01-30T02:49:31;147.27;;;48.13;;
11835;SDS011;5977;51.972;7.640;2024-01-30T02:51:59;148.50;;;48.83;;
11835;SDS011;5977;51.972;7.640;2024-01-30T02:54:27;148.33;;;48.90;;
11835;SDS011;5977;51.972;7.640;2024-01-30T02:56:58;148.10;;;48.77;;
11835;SDS011;5977;51.972;7.640;2024-01-30T02:59:26;148.27;;;48.67;;
11835;SDS011;5977;51.972;7.640;2024-01-30T03:01:53;148.13;;;48.57;;
11835;SDS011;5977;51.972;7.640;2024-01-30T03:04:22;148.30;;;48.83;;
11835;SDS011;5977;51.972;7.640;2024-01-30T03:06:50;147.87;;;48.37;;
11835;SDS011;5977;51.972;7.640;2024-01-30T03:09:18;147.93;;;48.67;;
11835;SDS011;5977;51.972;7.640;2024-01-30T03:11:46;147.90;;;48.47;;
11835;SDS011;5977;51.972;7.640;2024-01-30T03:14:15;147.30;;;48.20;;
11835;SDS011;5977;51.972;7.640;2024-01-30T03:16:43;148.47;;;48.93;;
11835;SDS011;5977;51.972;7.640;2024-01-30T03:19:11;148.10;;;48.60;;
11835;SDS011;5977;51.972;7.640;2024-01-30T03:21:39;148.80;;;49.07;;
11835;SDS011;5977;51.972;7.640;2024-01-30T03:24:07;148.07;;;48.60;;
11835;SDS011;5977;51.972;7.640;2024-01-30T03:26:35;147.37;;;48.40;;
11835;SDS011;5977;51.972;7.640;2024-01-30T03:29:03;147.90;;;48.67;;
11835;SDS011;5977;51.972;7.640;2024-01-30T03:31:32;147.97;;;48.60;;
11835;SDS011;5977;51.972;7.640;2024-01-30T03:34:00;146.83;;;48.13;;
11835;SDS011;5977;51.972;7.640;2024-01-30T03:36:29;148.43;;;48.63;;
11835;SDS011;5977;51.972;7.640;2024-01-30T03:38:59;147.97;;;48.57;;
11835;SDS011;5977;51.972;7.640;2024-01-30T03:41:27;147.10;;;48.07;;
11835;SDS011;5977;51.972;7.640;2024-01-30T03:43:55;147.60;;;48.43;;
11835;SDS011;5977;51.972;7.640;2024-01-30T03:46:22;148.27;;;48.63;;
11835;SDS011;5977;51.972;7.640;2024-01-30T03:48:52;147.97;;;48.63;;
11835;SDS011;5977;51.972;7.640;2024-01-30T03:51:20;147.93;;;48.40;;
11835;SDS011;5977;51.972;7.640;2024-01-30T03:53:48;147.77;;;48.50;;
11835;SDS011;5977;51.972;7.640;2024-01-30T03:56:15;147.67;;;48.60;;
11835;SDS011;5977;51.972;7.640;2024-01-30T03:58:43;147.33;;;48.43;;
11835;SDS011;5977;51.972;7.640;2024-01-30T04:01:13;148.43;;;48.60;;
11835;SDS011;5977;51.972;7.640;2024-01-30T04:03:41;147.30;;;48.33;;
11835;SDS011;5977;51.972;7.640;2024-01-30T04:06:11;148.00;;;48.67;;
11835;SDS011;5977;51.972;7.640;2024-01-30T04:08:39;147.70;;;48.40;;
11835;SDS011;5977;51.972;7.640;2024-01-30T04:11:08;147.57;;;48.37;;
11835;SDS011;5977;51.972;7.640;2024-01-30T04:13:35;147.70;;;48.40;;
11835;SDS011;5977;51.972;7.640;2024-01-30T04:16:04;147.87;;;48.63;;
11835;SDS011;5977;51.972;7.640;2024-01-30T04:18:32;147.83;;;48.67;;
11835;SDS011;5977;51.972;7.640;2024-01-30T04:21:00;147.67;;;48.57;;
11835;SDS011;5977;51.972;7.640;2024-01-30T04:23:29;147.30;;;48.33;;
11835;SDS011;5977;51.972;7.640;2024-01-30T04:25:57;148.27;;;48.83;;
11835;SDS011;5977;51.972;7.640;2024-01-30T04:28:25;147.30;;;48.33;;
11835;SDS011;5977;51.972;7.640;2024-01-30T04:30:53;148.10;;;48.77;;
11835;SDS011;5977;51.972;7.640;2024-01-30T04:33:21;147.90;;;48.53;;
11835;SDS011;5977;51.972;7.640;2024-01-30T04:35:49;147.50;;;48.33;;
11835;SDS011;5977;51.972;7.640;2024-01-30T04:38:18;147.57;;;48.33;;
11835;SDS011;5977;51.972;7.640;2024-01-30T04:40:47;147.90;;;48.67;;
11835;SDS011;5977;51.972;7.640;2024-01-30T04:43:15;147.83;;;48.67;;
11835;SDS011;5977;51.972;7.640;2024-01-30T04:45:43;148.07;;;48.60;;
11835;SDS011;5977;51.972;7.640;2024-01-30T04:48:10;147.73;;;48.47;;
11835;SDS011;5977;51.972;7.640;2024-01-30T04:50:38;147.43;;;48.33;;
11835;SDS011;5977;51.972;7.640;2024-01-30T04:53:06;147.43;;;48.17;;
11835;SDS011;5977;51.972;7.640;2024-01-30T04:55:35;147.67;;;48.63;;
11835;SDS011;5977;51.972;7.640;2024-01-30T04:58:04;147.80;;;48.47;;
11835;SDS011;5977;51.972;7.640;2024-01-30T05:00:32;147.63;;;48.53;;
11835;SDS011;5977;51.972;7.640;2024-01-30T05:03:00;147.47;;;48.47;;
11835;SDS011;5977;51.972;7.640;2024-01-30T05:05:28;147.27;;;48.17;;
11835;SDS011;5977;51.972;7.640;2024-01-30T05:07:57;147.93;;;48.77;;
11835;SDS011;5977;51.972;7.640;2024-01-30T05:10:26;147.47;;;48.37;;
11835;SDS011;5977;51.972;7.640;2024-01-30T05:12:56;146.57;;;48.03;;
11835;SDS011;5977;51.972;7.640;2024-01-30T05:15:25;147.60;;;48.50;;
11835;SDS011;5977;51.972;7.640;2024-01-30T05:17:53;147.40;;;48.47;;
11835;SDS011;5977;51.972;7.640;2024-01-30T05:20:21;147.23;;;48.37;;
11835;SDS011;5977;51.972;7.640;2024-01-30T05:22:49;147.30;;;48.27;;
11835;SDS011;5977;51.972;7.640;2024-01-30T05:25:17;148.03;;;48.53;;
11835;SDS011;5977;51.972;7.640;2024-01-30T05:27:45;147.37;;;48.37;;
11835;SDS011;5977;51.972;7.640;2024-01-30T05:30:13;146.93;;;48.23;;
11835;SDS011;5977;51.972;7.640;2024-01-30T05:32:42;147.73;;;48.70;;
11835;SDS011;5977;51.972;7.640;2024-01-30T05:35:11;147.43;;;48.40;;
11835;SDS011;5977;51.972;7.640;2024-01-30T05:37:39;147.83;;;48.63;;
11835;SDS011;5977;51.972;7.640;2024-01-30T05:40:07;147.80;;;48.70;;
11835;SDS011;5977;51.972;7.640;2024-01-30T05:42:36;147.60;;;48.37;;
11835;SDS011;5977;51.972;7.640;2024-01-30T05:45:04;148.03;;;48.67;;
11835;SDS011;5977;51.972;7.640;2024-01-30T05:47:32;147.90;;;48.60;;
11835;SDS011;5977;51.972;7.640;2024-01-30T05:50:02;147.60;;;48.43;;
11835;SDS011;5977;51.972;7.640;2024-01-30T05:52:30;146.87;;;48.10;;
11835;SDS011;5977;51.972;7.640;2024-01-30T05:54:58;148.07;;;48.63;;
11835;SDS011;5977;51.972;7.640;2024-01-30T05:57:26;147.20;;;48.40;;
11835;SDS011;5977;51.972;7.640;2024-01-30T05:59:54;147.20;;;48.33;;
11835;SDS011;5977;51.972;7.640;2024-01-30T06:02:22;148.20;;;48.63;;
11835;SDS011;5977;51.972;7.640;2024-01-30T06:04:50;147.67;;;48.47;;
11835;SDS011;5977;51.972;7.640;2024-01-30T06:07:20;147.43;;;48.33;;
11835;SDS011;5977;51.972;7.640;2024-01-30T06:09:48;148.10;;;48.63;;
11835;SDS011;5977;51.972;7.640;2024-01-30T06:12:16;147.10;;;48.30;;
11835;SDS011;5977;51.972;7.640;2024-01-30T06:14:44;147.50;;;48.63;;
11835;SDS011;5977;51.972;7.640;2024-01-30T06:17:13;148.13;;;48.77;;
11835;SDS011;5977;51.972;7.640;2024-01-30T06:19:41;146.97;;;48.20;;
11835;SDS011;5977;51.972;7.640;2024-01-30T06:22:09;147.27;;;48.27;;
11835;SDS011;5977;51.972;7.640;2024-01-30T06:24:39;147.03;;;48.23;;
11835;SDS011;5977;51.972;7.640;2024-01-30T06:27:07;147.60;;;48.43;;
11835;SDS011;5977;51.972;7.640;2024-01-30T06:29:35;147.80;;;48.53;;
11835;SDS011;5977;51.972;7.640;2024-01-30T06:32:04;147.50;;;48.47;;
11835;SDS011;5977;51.972;7.640;2024-01-30T06:34:32;147.10;;;48.20;;
11835;SDS011;5977;51.972;7.640;2024-01-30T06:37:00;147.37;;;48.53;;
11835;SDS011;5977;51.972;7.640;2024-01-30T06:39:28;147.37;;;48.43;;
11835;SDS011;5977;51.972;7.640;2024-01-30T06:41:58;147.90;;;48.53;;
11835;SDS011;5977;51.972;7.640;2024-01-30T06:44:26;147.87;;;48.57;;
11835;SDS011;5977;51.972;7.640;2024-01-30T06:46:58;147.10;;;48.13;;
11835;SDS011;5977;51.972;7.640;2024-01-30T06:49:26;148.60;;;48.90;;
11835;SDS011;5977;51.972;7.640;2024-01-30T06:51:54;147.87;;;48.57;;
11835;SDS011;5977;51.972;7.640;2024-01-30T06:54:22;147.70;;;48.57;;
11835;SDS011;5977;51.972;7.640;2024-01-30T06:56:49;147.70;;;48.47;;
11835;SDS011;5977;51.972;7.640;2024-01-30T06:59:19;148.20;;;48.83;;
11835;SDS011;5977;51.972;7.640;2024-01-30T07:01:47;147.43;;;48.53;;
11835;SDS011;5977;51.972;7.640;2024-01-30T07:04:15;147.53;;;48.37;;
11835;SDS011;5977;51.972;7.640;2024-01-30T07:06:44;148.30;;;48.93;;
11835;SDS011;5977;51.972;7.640;2024-01-30T07:09:12;147.27;;;48.30;;
11835;SDS011;5977;51.972;7.640;2024-01-30T07:11:40;147.97;;;48.80;;
11835;SDS011;5977;51.972;7.640;2024-01-30T07:14:08;147.87;;;48.57;;
11835;SDS011;5977;51.972;7.640;2024-01-30T07:16:38;147.47;;;48.33;;
11835;SDS011;5977;51.972;7.640;2024-01-30T07:19:06;147.07;;;48.17;;
11835;SDS011;5977;51.972;7.640;2024-01-30T07:21:35;147.20;;;48.40;;
11835;SDS011;5977;51.972;7.640;2024-01-30T07:24:04;147.80;;;48.53;;
11835;SDS011;5977;51.972;7.640;2024-01-30T07:26:33;147.67;;;48.53;;
11835;SDS011;5977;51.972;7.640;2024-01-30T07:29:01;146.80;;;48.13;;
11835;SDS011;5977;51.972;7.640;2024-01-30T07:31:29;147.73;;;48.60;;
11835;SDS011;5977;51.972;7.640;2024-01-30T07:34:01;147.73;;;48.70;;
11835;SDS011;5977;51.972;7.640;2024-01-30T07:36:29;147.33;;;48.33;;
11835;SDS011;5977;51.972;7.640;2024-01-30T07:38:57;147.53;;;48.50;;
11835;SDS011;5977;51.972;7.640;2024-01-30T07:41:25;147.37;;;48.33;;
11835;SDS011;5977;51.972;7.640;2024-01-30T07:43:53;147.67;;;48.57;;
11835;SDS011;5977;51.972;7.640;2024-01-30T07:46:21;146.80;;;48.20;;
11835;SDS011;5977;51.972;7.640;2024-01-30T07:48:49;147.23;;;48.23;;
11835;SDS011;5977;51.972;7.640;2024-01-30T07:51:21;147.60;;;48.50;;
11835;SDS011;5977;51.972;7.640;2024-01-30T07:53:49;147.60;;;48.57;;
11835;SDS011;5977;51.972;7.640;2024-01-30T07:56:17;147.80;;;48.77;;
11835;SDS011;5977;51.972;7.640;2024-01-30T07:58:45;147.93;;;48.77;;
11835;SDS011;5977;51.972;7.640;2024-01-30T08:01:14;147.03;;;48.17;;
11835;SDS011;5977;51.972;7.640;2024-01-30T08:03:42;147.50;;;48.57;;
11835;SDS011;5977;51.972;7.640;2024-01-30T08:06:10;147.70;;;48.33;;
11835;SDS011;5977;51.972;7.640;2024-01-30T08:08:39;147.57;;;48.63;;
11835;SDS011;5977;51.972;7.640;2024-01-30T08:11:07;147.67;;;48.47;;
11835;SDS011;5977;51.972;7.640;2024-01-30T08:13:35;147.57;;;48.57;;
11835;SDS011;5977;51.972;7.640;2024-01-30T08:16:03;147.53;;;48.57;;
11835;SDS011;5977;51.972;7.640;2024-01-30T08:18:32;147.67;;;48.53;;
11835;SDS011;5977;51.972;7.640;2024-01-30T08:21:00;147.57;;;48.57;;
11835;SDS011;5977;51.972;7.640;2024-01-30T08:23:28;148.00;;;48.87;;
11835;SDS011;5977;51.972;7.640;2024-01-30T08:25:57;148.07;;;48.77;;
11835;SDS011;5977;51.972;7.640;2024-01-30T08:28:25;147.20;;;48.33;;
11835;SDS011;5977;51.972;7.640;2024-01-30T08:30:54;147.63;;;48.50;;
11835;SDS011;5977;51.972;7.640;2024-01-30T08:33:21;147.53;;;48.43;;
11835;SDS011;5977;51.972;7.640;2024-01-30T08:35:49;148.03;;;48.73;;
11835;SDS011;5977;51.972;7.640;2024-01-30T08:38:17;148.13;;;48.83;;
11835;SDS011;5977;51.972;7.640;2024-01-30T08:40:45;147.83;;;48.67;;
11835;SDS011;5977;51.972;7.640;2024-01-30T08:43:14;147.33;;;48.50;;
11835;SDS011;5977;51.972;7.640;2024-01-30T08:45:43;147.13;;;48.37;;
11835;SDS011;5977;51.972;7.640;2024-01-30T08:48:11;148.03;;;48.60;;
11835;SDS011;5977;51.972;7.640;2024-01-30T08:50:39;148.00;;;48.57;;
11835;SDS011;5977;51.972;7.640;2024-01-30T08:53:07;147.57;;;48.47;;
11835;SDS011;5977;51.972;7.640;2024-01-30T08:55:34;148.17;;;48.63;;
11835;SDS011;5977;51.972;7.640;2024-01-30T08:58:02;147.73;;;48.67;;
11835;SDS011;5977;51.972;7.640;2024-01-30T09:00:32;147.63;;;48.50;;
11835;SDS011;5977;51.972;7.640;2024-01-30T09:03:00;148.20;;;48.83;;
11835;SDS011;5977;51.972;7.640;2024-01-30T09:05:28;148.63;;;48.90;;
11835;SDS011;5977;51.972;7.640;2024-01-30T09:07:56;148.33;;;48.93;;
11835;SDS011;5977;51.972;7.640;2024-01-30T09:10:24;147.53;;;48.57;;
11835;SDS011;5977;51.972;7.640;2024-01-30T09:12:53;148.37;;;48.97;;
11835;SDS011;5977;51.972;7.640;2024-01-30T09:15:21;147.83;;;48.63;;
11835;SDS011;5977;51.972;7.640;2024-01-30T09:17:53;147.53;;;48.50;;
11835;SDS011;5977;51.972;7.640;2024-01-30T09:20:21;148.70;;;48.97;;
11835;SDS011;5977;51.972;7.640;2024-01-30T09:22:49;147.57;;;48.43;;
11835;SDS011;5977;51.972;7.640;2024-01-30T09:25:17;148.10;;;48.70;;
11835;SDS011;5977;51.972;7.640;2024-01-30T09:27:45;147.77;;;48.53;;
11835;SDS011;5977;51.972;7.640;2024-01-30T09:30:14;147.83;;;48.73;;
11835;SDS011;5977;51.972;7.640;2024-01-30T09:32:42;148.07;;;48.67;;
11835;SDS011;5977;51.972;7.640;2024-01-30T09:35:12;148.47;;;49.00;;
11835;SDS011;5977;51.972;7.640;2024-01-30T09:37:40;147.83;;;48.70;;
11835;SDS011;5977;51.972;7.640;2024-01-30T09:40:08;148.17;;;48.97;;
11835;SDS011;5977;51.972;7.640;2024-01-30T09:42:36;148.53;;;48.90;;
11835;SDS011;5977;51.972;7.640;2024-01-30T09:45:05;148.33;;;48.77;;
11835;SDS011;5977;51.972;7.640;2024-01-30T09:47:35;148.20;;;48.80;;
11835;SDS011;5977;51.972;7.640;2024-01-30T09:50:07;147.93;;;48.67;;
11835;SDS011;5977;51.972;7.640;2024-01-30T09:52:37;148.30;;;48.87;;
11835;SDS011;5977;51.972;7.640;2024-01-30T09:55:06;148.03;;;48.67;;
11835;SDS011;5977;51.972;7.640;2024-01-30T09:57:35;147.90;;;48.80;;
11835;SDS011;5977;51.972;7.640;2024-01-30T10:00:03;148.37;;;48.87;;
11835;SDS011;5977;51.972;7.640;2024-01-30T10:02:40;148.10;;;48.70;;
11835;SDS011;5977;51.972;7.640;2024-01-30T10:05:08;147.73;;;48.73;;
11835;SDS011;5977;51.972;7.640;2024-01-30T10:07:38;148.10;;;48.70;;
11835;SDS011;5977;51.972;7.640;2024-01-30T10:10:06;148.17;;;48.93;;
11835;SDS011;5977;51.972;7.640;2024-01-30T10:12:34;147.40;;;48.40;;
11835;SDS011;5977;51.972;7.640;2024-01-30T10:15:02;148.07;;;48.70;;
11835;SDS011;5977;51.972;7.640;2024-01-30T10:17:34;147.57;;;48.40;;
11835;SDS011;5977;51.972;7.640;2024-01-30T10:20:05;148.07;;;48.70;;
11835;SDS011;5977;51.972;7.640;2024-01-30T10:22:34;148.20;;;48.77;;
11835;SDS011;5977;51.972;7.640;2024-01-30T10:25:04;147.87;;;48.57;;
11835;SDS011;5977;51.972;7.640;2024-01-30T10:27:34;147.57;;;48.63;;
11835;SDS011;5977;51.972;7.640;2024-01-30T10:30:02;148.20;;;48.83;;
11835;SDS011;5977;51.972;7.640;2024-01-30T10:32:30;148.13;;;48.80;;
11835;SDS011;5977;51.972;7.640;2024-01-30T10:34:58;147.70;;;48.63;;
11835;SDS011;5977;51.972;7.640;2024-01-30T10:37:26;148.03;;;48.70;;
11835;SDS011;5977;51.972;7.640;2024-01-30T10:40:00;148.17;;;48.53;;
11835;SDS011;5977;51.972;7.640;2024-01-30T10:42:32;147.67;;;48.50;;
11835;SDS011;5977;51.972;7.640;2024-01-30T10:45:05;148.13;;;48.67;;
11835;SDS011;5977;51.972;7.640;2024-01-30T10:47:36;148.70;;;49.00;;
11835;SDS011;5977;51.972;7.640;2024-01-30T10:50:04;148.63;;;49.00;;
11835;SDS011;5977;51.972;7.640;2024-01-30T10:52:35;148.03;;;48.73;;
11835;SDS011;5977;51.972;7.640;2024-01-30T10:55:05;147.93;;;48.73;;
11835;SDS011;5977;51.972;7.640;2024-01-30T10:57:35;148.33;;;48.77;;
11835;SDS011;5977;51.972;7.640;2024-01-30T11:00:04;148.03;;;48.73;;
11835;SDS011;5977;51.972;7.640;2024-01-30T11:02:37;148.33;;;48.87;;
11835;SDS011;5977;51.972;7.640;2024-01-30T11:05:06;148.77;;;49.07;;
11835;SDS011;5977;51.972;7.640;2024-01-30T11:07:35;148.13;;;48.80;;
11835;SDS011;5977;51.972;7.640;2024-01-30T11:10:03;148.30;;;48.77;;
11835;SDS011;5977;51.972;7.640;2024-01-30T11:12:37;148.27;;;49.10;;
11835;SDS011;5977;51.972;7.640;2024-01-30T11:15:12;148.53;;;49.03;;
11835;SDS011;5977;51.972;7.640;2024-01-30T11:17:44;148.63;;;49.07;;
11835;SDS011;5977;51.972;7.640;2024-01-30T11:20:19;148.23;;;48.80;;
11835;SDS011;5977;51.972;7.640;2024-01-30T11:22:48;148.80;;;49.00;;
11835;SDS011;5977;51.972;7.640;2024-01-30T11:25:20;149.03;;;49.10;;
11835;SDS011;5977;51.972;7.640;2024-01-30T11:27:49;149.40;;;49.57;;
11835;SDS011;5977;51.972;7.640;2024-01-30T11:30:22;148.80;;;49.07;;
11835;SDS011;5977;51.972;7.640;2024-01-30T11:33:00;149.30;;;49.40;;
11835;SDS011;5977;51.972;7.640;2024-01-30T11:35:33;149.47;;;49.57;;
11835;SDS011;5977;51.972;7.640;2024-01-30T11:38:02;148.83;;;49.07;;
11835;SDS011;5977;51.972;7.640;2024-01-30T11:40:32;149.43;;;49.50;;
11835;SDS011;5977;51.972;7.640;2024-01-30T11:43:01;149.10;;;49.17;;
11835;SDS011;5977;51.972;7.640;2024-01-30T11:45:31;148.33;;;48.90;;
11835;SDS011;5977;51.972;7.640;2024-01-30T11:47:59;149.57;;;49.47;;
11835;SDS011;5977;51.972;7.640;2024-01-30T11:50:30;148.53;;;48.77;;
11835;SDS011;5977;51.972;7.640;2024-01-30T11:52:59;148.97;;;49.30;;
11835;SDS011;5977;51.972;7.640;2024-01-30T11:55:28;149.40;;;49.40;;
11835;SDS011;5977;51.972;7.640;2024-01-30T11:58:02;148.83;;;49.13;;
11835;SDS011;5977;51.972;7.640;2024-01-30T12:00:30;149.07;;;49.17;;
11835;SDS011;5977;51.972;7.640;2024-01-30T12:02:59;149.50;;;49.47;;
11835;SDS011;5977;51.972;7.640;2024-01-30T12:05:28;149.07;;;49.17;;
11835;SDS011;5977;51.972;7.640;2024-01-30T12:07:56;149.23;;;49.27;;
11835;SDS011;5977;51.972;7.640;2024-01-30T12:10:27;148.77;;;48.97;;
11835;SDS011;5977;51.972;7.640;2024-01-30T12:12:55;148.43;;;48.80;;
11835;SDS011;5977;51.972;7.640;2024-01-30T12:15:26;149.13;;;49.20;;
11835;SDS011;5977;51.972;7.640;2024-01-30T12:18:03;148.70;;;48.93;;
11835;SDS011;5977;51.972;7.640;2024-01-30T12:20:32;149.13;;;49.00;;
11835;SDS011;5977;51.972;7.640;2024-01-30T12:23:00;148.70;;;48.87;;
11835;SDS011;5977;51.972;7.640;2024-01-30T12:25:28;148.87;;;49.27;;
11835;SDS011;5977;51.972;7.640;2024-01-30T12:27:57;149.33;;;49.33;;
11835;SDS011;5977;51.972;7.640;2024-01-30T12:30:27;148.43;;;48.80;;
11835;SDS011;5977;51.972;7.640;2024-01-30T12:32:55;149.13;;;49.20;;
11835;SDS011;5977;51.972;7.640;2024-01-30T12:35:24;148.73;;;49.03;;
11835;SDS011;5977;51.972;7.640;2024-01-30T12:37:54;148.87;;;49.10;;
11835;SDS011;5977;51.972;7.640;2024-01-30T12:40:22;149.27;;;49.50;;
11835;SDS011;5977;51.972;7.640;2024-01-30T12:42:52;149.57;;;49.43;;
11835;SDS011;5977;51.972;7.640;2024-01-30T12:45:20;148.80;;;48.87;;
11835;SDS011;5977;51.972;7.640;2024-01-30T12:47:51;148.77;;;49.03;;
11835;SDS011;5977;51.972;7.640;2024-01-30T12:50:19;148.83;;;48.97;;
11835;SDS011;5977;51.972;7.640;2024-01-30T12:52:47;148.40;;;48.90;;
11835;SDS011;5977;51.972;7.640;2024-01-30T12:55:16;149.07;;;49.13;;
11835;SDS011;5977;51.972;7.640;2024-01-30T12:57:44;148.63;;;48.77;;
11835;SDS011;5977;51.972;7.640;2024-01-30T13:00:13;149.30;;;49.10;;
11835;SDS011;5977;51.972;7.640;2024-01-30T13:02:43;148.93;;;48.87;;
11835;SDS011;5977;51.972;7.640;2024-01-30T13:05:12;149.13;;;49.13;;
11835;SDS011;5977;51.972;7.640;2024-01-30T13:07:41;148.97;;;48.97;;
11835;SDS011;5977;51.972;7.640;2024-01-30T13:10:09;148.57;;;48.97;;
11835;SDS011;5977;51.972;7.640;2024-01-30T13:12:37;148.17;;;48.63;;
11835;SDS011;5977;51.972;7.640;2024-01-30T13:15:05;149.03;;;49.10;;
11835;SDS011;5977;51.972;7.640;2024-01-30T13:17:34;148.97;;;48.93;;
11835;SDS011;5977;51.972;7.640;2024-01-30T13:20:02;148.93;;;49.10;;
11835;SDS011;5977;51.972;7.640;2024-01-30T13:22:38;148.90;;;49.10;;
11835;SDS011;5977;51.972;7.640;2024-01-30T13:25:06;149.57;;;49.33;;
11835;SDS011;5977;51.972;7.640;2024-01-30T13:27:35;148.77;;;49.10;;
11835;SDS011;5977;51.972;7.640;2024-01-30T13:30:06;148.97;;;49.20;;
11835;SDS011;5977;51.972;7.640;2024-01-30T13:32:35;148.43;;;48.77;;
11835;SDS011;5977;51.972;7.640;2024-01-30T13:35:04;148.60;;;48.67;;
11835;SDS011;5977;51.972;7.640;2024-01-30T13:37:33;149.27;;;49.17;;
11835;SDS011;5977;51.972;7.640;2024-01-30T13:40:02;148.33;;;48.80;;
11835;SDS011;5977;51.972;7.640;2024-01-30T13:42:37;148.83;;;48.87;;
11835;SDS011;5977;51.972;7.640;2024-01-30T13:45:05;148.77;;;49.00;;
11835;SDS011;5977;51.972;7.640;2024-01-30T13:47:36;149.70;;;49.27;;
11835;SDS011;5977;51.972;7.640;2024-01-30T13:50:04;148.63;;;49.07;;
11835;SDS011;5977;51.972;7.640;2024-01-30T13:52:33;149.13;;;49.17;;
11835;SDS011;5977;51.972;7.640;2024-01-30T13:55:11;148.07;;;48.67;;
11835;SDS011;5977;51.972;7.640;2024-01-30T13:57:39;148.03;;;48.73;;
11835;SDS011;5977;51.972;7.640;2024-01-30T14:00:08;149.10;;;49.07;;
11835;SDS011;5977;51.972;7.640;2024-01-30T14:02:39;148.47;;;49.00;;
11835;SDS011;5977;51.972;7.640;2024-01-30T14:05:07;149.17;;;49.07;;
11835;SDS011;5977;51.972;7.640;2024-01-30T14:07:36;148.73;;;48.87;;
11835;SDS011;5977;51.972;7.640;2024-01-30T14:10:07;148.70;;;48.90;;
11835;SDS011;5977;51.972;7.640;2024-01-30T14:12:41;148.07;;;48.67;;
11835;SDS011;5977;51.972;7.640;2024-01-30T14:15:10;148.10;;;48.60;;
11835;SDS011;5977;51.972;7.640;2024-01-30T14:17:52;148.80;;;49.17;;
11835;SDS011;5977;51.972;7.640;2024-01-30T14:20:21;148.17;;;48.77;;
11835;SDS011;5977;51.972;7.640;2024-01-30T14:22:49;149.07;;;49.13;;
11835;SDS011;5977;51.972;7.640;2024-01-30T14:25:17;148.60;;;48.80;;
11835;SDS011;5977;51.972;7.640;2024-01-30T14:27:47;148.43;;;48.97;;
11835;SDS011;5977;51.972;7.640;2024-01-30T14:30:15;148.07;;;48.67;;